Terminal Aerodrome Forecast
Issued by NWS

Home | Current Version | Previous Version | Text Only | Print | Product List | Glossary On
Versions: 1 2 3 4 5 6 7 8 9 10 11 12 13 14 15 16 17 18 19 20 21 22
727
FTUS43 KPAH 191704 CCA
TAFCGI
TAF COR
KCGI 191704Z 1917/2012 VRB03KT P6SM SCT010
      TEMPO 1917/1919 4SM BR BKN002
     FM191900 16005KT P6SM SCT025
     FM200000 15004KT P6SM BKN025
     FM200600 14003KT 4SM BR SCT010 BKN250
      TEMPO 2008/2012 2SM BR BKN010=

USA.gov is the U.S. government's official web portal to all federal, state and local government web resources and services.